Αρχική σελίδα
METAR-TAF:

METAR-TAF

Αεροδρόμια :

Καράτσι, Πακιστάν

γεωγραφικό πλάτος: 24-54N, γεωγραφικό μήκος: 067-08E, υψόμετρο: 21 μ

Παρών καιρός

Η αναφορά έγινε 21 λεπτά πριν, στις 22:55 UTC
Άνεμος 3 kt από Β/BA
Θερμοκρασία 22°C
Υγρασία 73%
Πίεση 1014 hPa
Ορατότητα: 4000 μ
καπνός

METAR: OPKC 212255Z 02003KT 4000 FU NSC 22/17 Q1014 NOSIG

Χρόνος: 04:16 (23:16 UTC)

Πρόγνωση Καιρού

Η αναφορά έγινε 4 ώρες και 46 λεπτά πριν, στις 18:30 UTC
Η πρόγνωση ισχύει από τις 21 στις 21 UTC έως τις 22 στις 06 UTC
Άνεμος 7 kt από Β/BΔ
Ορατότητα: 5000 μ
καταχνιά
Προσωρινά
από 22 στις 00 UTC έως τις 22 στις 04 UTC
Άνεμος 5 kt από Β/BA
Ορατότητα: 3000 μ
καπνός

TAF: OPKC 211830Z 2121/2206 33007KT 5000 HZ TEMPO 2200/2204 03005KT 3000 FU NSC

Μετεωρολογικές αναφορές και προγνώσεις για περισσότερα από 4000 αεροδρόμια (δελτία METAR και TAF).

Οι διαθέσιμοι σταθμοί απεικονίζονται στο χάρτη με κίτρινες και κόκκινες κουκκίδες.

Μετακινήστε το ποντίκι πάνω από τις κουκκίδες για να δείτε το όνομα του σταθμού.

Στη συνέχεια, κάντε κλικ για να δείτε τις μετεωρολογικές αναφορές και τις προγνώσεις καιρού.

Για να αλλάξετε το χάρτη: κάντε κλικ στα πράσινα κουμπιά με τον μαύρο σταυρό για να ζουμάρετε, στο πράσινο κουμπί με την παύλα για να αφαιρέσετε το ζουμ ή στα πράσινα βέλη για να αντιπαραβάλλετε χάρτες.


METAR-TAF: